Weather History for Midland Airpark, TX

Change the Weather History Date:

Wednesday, November 21, 2012

  Actual Average (KMAF) Record (KMAF)
Temperature  
Mean Temperature 63 °F 50 °F  
Max Temperature 76 °F 64 °F 82 °F (2010)
Min Temperature 50 °F 37 °F 21 °F (2008)
Degree Days  
Heating Degree Days 2 15  
Month to date heating degree days 223  
Since 1 July heating degree days 332  
Growing Degree Days 13 (Base 50)    
Moisture  
Dew Point 43 °F    
Average Humidity 49    
Maximum Humidity 67    
Minimum Humidity 32    
Precipitation  
Precipitation 0.00 in 0.02 in 0.36 in (1992)
Month to date precipitation 0.50  
Year to date precipitation 13.81  
Snow  
Snow 0.00 in - - ()
Month to date snowfall  
Since 1 July snowfall  
Since 1 September snowfall  
Snow Depth -    
Sea Level Pressure  
Sea Level Pressure 30.18 in    
Wind  
Wind Speed 5 mph (SSE)    
Max Wind Speed 17 mph    
Max Gust Speed 22 mph    
Visibility 10 miles    
Events      
T = Trace of Precipitation, MM = Missing Value Source: NWS Daily Summary

Daily Weather History Graph

Daily Weather History Graph

Search for Another Location

Airport:

Trip Planner

Search our weather history database for the weather conditions in past years. The results will help you decide how hot, cold, wet, or windy it might be!

Date:

Astronomy

Nov. 21, 2012 Rise Set
Actual Time 7:22 AM CST 5:45 PM CST
Civil Twilight 6:56 AM CST 6:11 PM CST
Nautical Twilight 6:26 AM CST 6:41 PM CST
Astronomical Twilight 5:57 AM CST 7:10 PM CST
Moon 1:43 PM CST (11/21) 1:05 AM CST (11/21)
Length of Visible Light 11h 15m
Length of Day
10h 22m
First Quarter, 62% of the Moon is Illuminated
Nov 21
First Quarter
Nov 28
Full
Dec 6
Last Quarter
Dec 13
New
Dec 19
First Quarter

Hourly Weather History & Observations

Time (CST) Temp. Dew Point Humidity Pressure Visibility Wind Dir Wind Speed Gust Speed Precip Events Conditions
12:15 AM 55.6 °F 28.6 °F 36% 30.24 in 10.0 mi SSE 3.5 mph - N/A   Clear
12:35 AM 54.5 °F 29.3 °F 38% 30.24 in 10.0 mi Calm Calm - N/A   Clear
12:55 AM 54.5 °F 29.7 °F 39% 30.24 in 10.0 mi Calm Calm - N/A   Clear
1:15 AM 54.9 °F 29.7 °F 38% 30.24 in 10.0 mi Calm Calm - N/A   Clear
1:35 AM 55.0 °F 29.3 °F 37% 30.24 in 10.0 mi SSE 4.6 mph - N/A   Clear
1:55 AM 54.1 °F 30.0 °F 40% 30.23 in 10.0 mi South 4.6 mph - N/A   Clear
2:15 AM 54.1 °F 29.8 °F 39% 30.23 in 10.0 mi Calm Calm - N/A   Clear
2:35 AM 53.2 °F 30.9 °F 43% 30.22 in 10.0 mi Calm Calm - N/A   Clear
2:55 AM 52.0 °F 31.3 °F 45% 30.22 in 10.0 mi Calm Calm - N/A   Clear
3:15 AM 53.1 °F 30.4 °F 42% 30.22 in 10.0 mi Calm Calm - N/A   Clear
3:35 AM 51.4 °F 31.8 °F 47% 30.22 in 10.0 mi East 3.5 mph - N/A   Clear
3:55 AM 50.9 °F 32.0 °F 48% 30.22 in 10.0 mi Calm Calm - N/A   Clear
4:15 AM 50.7 °F 32.0 °F 49% 30.21 in 10.0 mi Calm Calm - N/A   Clear
4:35 AM 51.1 °F 32.0 °F 48% 30.21 in 10.0 mi East 3.5 mph - N/A   Clear
4:55 AM 50.9 °F 32.2 °F 49% 30.21 in 10.0 mi Calm Calm - N/A   Clear
5:15 AM 51.6 °F 31.8 °F 47% 30.21 in 10.0 mi Calm Calm - N/A   Clear
5:35 AM 52.2 °F 32.2 °F 47% 30.22 in 10.0 mi Calm Calm - N/A   Clear
5:55 AM 52.7 °F 31.8 °F 45% 30.22 in 10.0 mi Calm Calm - N/A   Clear
6:15 AM 53.6 °F 31.5 °F 43% 30.22 in 10.0 mi Calm Calm - N/A   Clear
6:35 AM 53.6 °F 31.5 °F 43% 30.23 in 10.0 mi Calm Calm - N/A   Clear
6:55 AM 53.8 °F 32.4 °F 44% 30.22 in 10.0 mi Calm Calm - N/A   Clear
7:15 AM 53.2 °F 34.7 °F 49% 30.23 in 10.0 mi Calm Calm - N/A   Clear
7:35 AM 52.0 °F 35.8 °F 54% 30.23 in 10.0 mi Calm Calm - N/A   Clear
7:55 AM 51.8 °F 36.0 °F 55% 30.23 in 10.0 mi Calm Calm - N/A   Clear
8:15 AM 52.7 °F 36.5 °F 54% 30.24 in 10.0 mi Calm Calm - N/A   Clear
8:35 AM 54.5 °F 39.9 °F 58% 30.24 in 10.0 mi ESE 4.6 mph - N/A   Clear
8:55 AM 54.9 °F 40.5 °F 58% 30.24 in 10.0 mi ESE 3.5 mph - N/A   Clear
9:15 AM 56.5 °F 43.3 °F 61% 30.25 in 10.0 mi SSE 3.5 mph - N/A   Clear
9:35 AM 59.0 °F 46.4 °F 63% 30.25 in 10.0 mi SE 4.6 mph - N/A   Clear
9:55 AM 60.4 °F 48.6 °F 65% 30.25 in 10.0 mi South 4.6 mph - N/A   Clear
10:15 AM 62.1 °F 51.1 °F 67% 30.25 in 10.0 mi South 8.1 mph - N/A   Clear
10:35 AM 62.4 °F 50.9 °F 66% 30.25 in 10.0 mi SSE 3.5 mph - N/A   Clear
10:55 AM 65.5 °F 51.4 °F 60% 30.25 in 10.0 mi Calm Calm - N/A   Clear
11:15 AM 70.2 °F 52.2 °F 53% 30.23 in 10.0 mi South 12.7 mph 18.4 mph N/A   Clear
11:35 AM 73.0 °F 51.6 °F 47% 30.22 in 10.0 mi South 13.8 mph 21.9 mph N/A   Clear
11:55 AM 72.7 °F 49.8 °F 44% 30.21 in 10.0 mi South 16.1 mph 21.9 mph N/A   Clear
12:15 PM 74.1 °F 48.4 °F 40% 30.20 in 10.0 mi SSW 15.0 mph - N/A   Clear
12:35 PM 75.6 °F 46.9 °F 36% 30.19 in 10.0 mi South 15.0 mph 19.6 mph N/A   Clear
12:55 PM 74.1 °F 44.2 °F 34% 30.18 in 10.0 mi South 15.0 mph - N/A   Clear
1:15 PM 74.8 °F 43.7 °F 33% 30.17 in 10.0 mi South 17.3 mph - N/A   Clear
1:35 PM 76.1 °F 43.9 °F 32% 30.15 in 10.0 mi South 11.5 mph 21.9 mph N/A   Clear
2:15 PM 75.4 °F 46.9 °F 36% 30.14 in 10.0 mi South 11.5 mph - N/A   Clear
2:35 PM 75.0 °F 47.8 °F 38% 30.13 in 10.0 mi South 17.3 mph 21.9 mph N/A   Clear
2:55 PM 74.7 °F 46.9 °F 37% 30.13 in 10.0 mi South 15.0 mph 20.7 mph N/A   Clear
3:15 PM 74.3 °F 47.7 °F 39% 30.13 in 10.0 mi South 13.8 mph - N/A   Clear
3:35 PM 73.9 °F 48.9 °F 41% 30.13 in 10.0 mi South 17.3 mph 21.9 mph N/A   Clear
3:55 PM 73.0 °F 50.7 °F 45% 30.13 in 10.0 mi South 15.0 mph - N/A   Clear
4:15 PM 72.7 °F 50.9 °F 46% 30.12 in 10.0 mi South 13.8 mph 19.6 mph N/A   Clear
4:35 PM 73.0 °F 50.7 °F 45% 30.13 in 10.0 mi SSE 9.2 mph - N/A   Clear
4:55 PM 73.2 °F 50.5 °F 45% 30.13 in 10.0 mi SSE 12.7 mph 16.1 mph N/A   Clear
5:15 PM 73.0 °F 49.1 °F 43% 30.12 in 10.0 mi South 9.2 mph - N/A   Clear
5:35 PM 72.7 °F 49.1 °F 43% 30.12 in 10.0 mi South 13.8 mph - N/A   Clear
5:55 PM 72.0 °F 49.6 °F 45% 30.13 in 10.0 mi South 13.8 mph - N/A   Clear
6:15 PM 71.1 °F 50.4 °F 48% 30.13 in 10.0 mi SSE 11.5 mph - N/A   Clear
6:35 PM 70.2 °F 51.3 °F 51% 30.13 in 10.0 mi SSE 12.7 mph - N/A   Clear
6:55 PM 69.4 °F 51.8 °F 53% 30.13 in 10.0 mi SSE 9.2 mph - N/A   Clear
7:15 PM 68.7 °F 52.0 °F 55% 30.13 in 10.0 mi SSE 11.5 mph - N/A   Clear
7:35 PM 68.2 °F 52.5 °F 57% 30.12 in 10.0 mi SSE 11.5 mph 16.1 mph N/A   Clear
7:55 PM 67.8 °F 52.7 °F 58% 30.12 in 10.0 mi SSE 13.8 mph - N/A   Clear
8:15 PM 67.6 °F 52.7 °F 59% 30.12 in 10.0 mi SSE 11.5 mph - N/A   Clear
8:35 PM 67.1 °F 52.7 °F 60% 30.12 in 10.0 mi SSE 10.4 mph - N/A   Clear
8:55 PM 66.7 °F 52.3 °F 60% 30.12 in 10.0 mi SSE 11.5 mph - N/A   Clear
9:15 PM 66.4 °F 52.2 °F 60% 30.12 in 10.0 mi SSE 11.5 mph - N/A   Clear
9:35 PM 66.2 °F 52.2 °F 61% 30.13 in 10.0 mi South 13.8 mph - N/A   Clear
9:55 PM 66.0 °F 52.2 °F 61% 30.12 in 10.0 mi South 11.5 mph - N/A   Clear
10:15 PM 65.7 °F 52.0 °F 61% 30.12 in 10.0 mi South 11.5 mph - N/A   Clear
10:35 PM 65.1 °F 52.0 °F 62% 30.12 in 10.0 mi South 11.5 mph - N/A   Clear
10:55 PM 64.8 °F 51.8 °F 63% 30.12 in 10.0 mi South 10.4 mph - N/A   Clear
11:15 PM 64.4 °F 51.8 °F 64% 30.12 in 10.0 mi South 11.5 mph - N/A   Clear
11:35 PM 64.6 °F 51.6 °F 63% 30.12 in 10.0 mi SSW 13.8 mph 17.3 mph N/A   Clear
11:55 PM 64.6 °F 51.1 °F 62% 30.12 in 10.0 mi South 12.7 mph - N/A   Clear